sensor_id;sensor_type;location;lat;lon;timestamp;P1;durP1;ratioP1;P2;durP2;ratioP2
48743;SDS011;34538;48.836;9.174;2023-12-20T00:00:20;1.83;;;0.90;;
48743;SDS011;34538;48.836;9.174;2023-12-20T00:02:48;1.30;;;1.00;;
48743;SDS011;34538;48.836;9.174;2023-12-20T00:05:15;1.40;;;1.10;;
48743;SDS011;34538;48.836;9.174;2023-12-20T00:07:43;1.27;;;0.85;;
48743;SDS011;34538;48.836;9.174;2023-12-20T00:10:10;1.35;;;1.10;;
48743;SDS011;34538;48.836;9.174;2023-12-20T00:12:38;2.45;;;0.90;;
48743;SDS011;34538;48.836;9.174;2023-12-20T00:15:06;1.02;;;0.68;;
48743;SDS011;34538;48.836;9.174;2023-12-20T00:17:34;1.58;;;1.08;;
48743;SDS011;34538;48.836;9.174;2023-12-20T00:20:02;1.17;;;0.90;;
48743;SDS011;34538;48.836;9.174;2023-12-20T00:22:31;2.17;;;0.90;;
48743;SDS011;34538;48.836;9.174;2023-12-20T00:24:58;1.42;;;0.85;;
48743;SDS011;34538;48.836;9.174;2023-12-20T00:27:25;0.95;;;0.88;;
48743;SDS011;34538;48.836;9.174;2023-12-20T00:29:51;1.52;;;1.08;;
48743;SDS011;34538;48.836;9.174;2023-12-20T00:32:19;1.83;;;1.00;;
48743;SDS011;34538;48.836;9.174;2023-12-20T00:34:46;1.15;;;0.93;;
48743;SDS011;34538;48.836;9.174;2023-12-20T00:37:14;1.52;;;1.13;;
48743;SDS011;34538;48.836;9.174;2023-12-20T00:39:41;1.83;;;0.90;;
48743;SDS011;34538;48.836;9.174;2023-12-20T00:42:09;1.80;;;1.33;;
48743;SDS011;34538;48.836;9.174;2023-12-20T00:44:35;2.90;;;1.50;;
48743;SDS011;34538;48.836;9.174;2023-12-20T00:47:03;1.75;;;1.10;;
48743;SDS011;34538;48.836;9.174;2023-12-20T00:49:30;2.10;;;1.30;;
48743;SDS011;34538;48.836;9.174;2023-12-20T00:51:57;3.67;;;1.52;;
48743;SDS011;34538;48.836;9.174;2023-12-20T00:54:25;3.63;;;1.50;;
48743;SDS011;34538;48.836;9.174;2023-12-20T00:56:52;2.60;;;1.15;;
48743;SDS011;34538;48.836;9.174;2023-12-20T00:59:19;2.50;;;1.60;;
48743;SDS011;34538;48.836;9.174;2023-12-20T01:01:46;3.22;;;1.48;;
48743;SDS011;34538;48.836;9.174;2023-12-20T01:04:13;2.78;;;1.50;;
48743;SDS011;34538;48.836;9.174;2023-12-20T01:06:40;4.05;;;2.03;;
48743;SDS011;34538;48.836;9.174;2023-12-20T01:09:07;2.53;;;1.48;;
48743;SDS011;34538;48.836;9.174;2023-12-20T01:11:35;2.53;;;1.67;;
48743;SDS011;34538;48.836;9.174;2023-12-20T01:14:02;3.17;;;1.70;;
48743;SDS011;34538;48.836;9.174;2023-12-20T01:16:29;3.45;;;1.65;;
48743;SDS011;34538;48.836;9.174;2023-12-20T01:18:56;3.60;;;1.90;;
48743;SDS011;34538;48.836;9.174;2023-12-20T01:21:23;3.03;;;1.95;;
48743;SDS011;34538;48.836;9.174;2023-12-20T01:23:50;3.00;;;1.80;;
48743;SDS011;34538;48.836;9.174;2023-12-20T01:26:17;3.25;;;1.80;;
48743;SDS011;34538;48.836;9.174;2023-12-20T01:28:45;2.90;;;1.58;;
48743;SDS011;34538;48.836;9.174;2023-12-20T01:31:12;5.43;;;1.77;;
48743;SDS011;34538;48.836;9.174;2023-12-20T01:33:39;4.90;;;2.10;;
48743;SDS011;34538;48.836;9.174;2023-12-20T01:36:06;5.70;;;1.80;;
48743;SDS011;34538;48.836;9.174;2023-12-20T01:38:33;3.72;;;2.13;;
48743;SDS011;34538;48.836;9.174;2023-12-20T01:40:59;4.07;;;2.25;;
48743;SDS011;34538;48.836;9.174;2023-12-20T01:43:26;3.50;;;1.90;;
48743;SDS011;34538;48.836;9.174;2023-12-20T01:45:55;2.80;;;1.83;;
48743;SDS011;34538;48.836;9.174;2023-12-20T01:48:23;2.55;;;1.60;;
48743;SDS011;34538;48.836;9.174;2023-12-20T01:50:51;4.25;;;2.03;;
48743;SDS011;34538;48.836;9.174;2023-12-20T01:53:19;3.00;;;1.90;;
48743;SDS011;34538;48.836;9.174;2023-12-20T01:55:47;5.00;;;2.03;;
48743;SDS011;34538;48.836;9.174;2023-12-20T01:58:16;3.63;;;2.08;;
48743;SDS011;34538;48.836;9.174;2023-12-20T02:00:45;3.08;;;1.98;;
48743;SDS011;34538;48.836;9.174;2023-12-20T02:03:13;2.60;;;1.67;;
48743;SDS011;34538;48.836;9.174;2023-12-20T02:05:41;3.63;;;1.90;;
48743;SDS011;34538;48.836;9.174;2023-12-20T02:08:08;3.95;;;2.25;;
48743;SDS011;34538;48.836;9.174;2023-12-20T02:10:34;4.57;;;2.13;;
48743;SDS011;34538;48.836;9.174;2023-12-20T02:13:01;3.30;;;1.95;;
48743;SDS011;34538;48.836;9.174;2023-12-20T02:15:29;3.58;;;2.10;;
48743;SDS011;34538;48.836;9.174;2023-12-20T02:17:56;4.55;;;2.20;;
48743;SDS011;34538;48.836;9.174;2023-12-20T02:20:24;6.47;;;2.50;;
48743;SDS011;34538;48.836;9.174;2023-12-20T02:22:53;5.22;;;2.22;;
48743;SDS011;34538;48.836;9.174;2023-12-20T02:25:20;5.25;;;2.40;;
48743;SDS011;34538;48.836;9.174;2023-12-20T02:27:47;4.05;;;2.28;;
48743;SDS011;34538;48.836;9.174;2023-12-20T02:30:15;5.68;;;2.25;;
48743;SDS011;34538;48.836;9.174;2023-12-20T02:32:42;4.50;;;2.35;;
48743;SDS011;34538;48.836;9.174;2023-12-20T02:35:08;4.25;;;2.63;;
48743;SDS011;34538;48.836;9.174;2023-12-20T02:37:36;5.03;;;2.60;;
48743;SDS011;34538;48.836;9.174;2023-12-20T02:40:05;2.65;;;2.22;;
48743;SDS011;34538;48.836;9.174;2023-12-20T02:42:33;5.07;;;2.53;;
48743;SDS011;34538;48.836;9.174;2023-12-20T02:45:00;5.15;;;2.45;;
48743;SDS011;34538;48.836;9.174;2023-12-20T02:47:27;4.13;;;2.40;;
48743;SDS011;34538;48.836;9.174;2023-12-20T02:49:54;3.22;;;1.95;;
48743;SDS011;34538;48.836;9.174;2023-12-20T02:52:22;4.25;;;1.63;;
48743;SDS011;34538;48.836;9.174;2023-12-20T02:54:49;1.98;;;1.20;;
48743;SDS011;34538;48.836;9.174;2023-12-20T02:57:18;0.90;;;0.80;;
48743;SDS011;34538;48.836;9.174;2023-12-20T02:59:45;1.75;;;0.73;;
48743;SDS011;34538;48.836;9.174;2023-12-20T03:02:12;0.88;;;0.45;;
48743;SDS011;34538;48.836;9.174;2023-12-20T03:04:39;1.33;;;0.60;;
48743;SDS011;34538;48.836;9.174;2023-12-20T03:07:06;1.05;;;0.60;;
48743;SDS011;34538;48.836;9.174;2023-12-20T03:09:33;0.57;;;0.30;;
48743;SDS011;34538;48.836;9.174;2023-12-20T03:12:00;0.85;;;0.75;;
48743;SDS011;34538;48.836;9.174;2023-12-20T03:14:28;0.40;;;0.30;;
48743;SDS011;34538;48.836;9.174;2023-12-20T03:16:55;0.30;;;0.30;;
48743;SDS011;34538;48.836;9.174;2023-12-20T03:19:23;0.30;;;0.30;;
48743;SDS011;34538;48.836;9.174;2023-12-20T03:21:50;0.30;;;0.30;;
48743;SDS011;34538;48.836;9.174;2023-12-20T03:24:19;0.47;;;0.40;;
48743;SDS011;34538;48.836;9.174;2023-12-20T03:26:45;1.10;;;0.10;;
48743;SDS011;34538;48.836;9.174;2023-12-20T03:29:13;0.30;;;0.28;;
48743;SDS011;34538;48.836;9.174;2023-12-20T03:31:41;0.20;;;0.20;;
48743;SDS011;34538;48.836;9.174;2023-12-20T03:34:08;0.95;;;0.40;;
48743;SDS011;34538;48.836;9.174;2023-12-20T03:36:36;0.75;;;0.30;;
48743;SDS011;34538;48.836;9.174;2023-12-20T03:39:04;2.53;;;0.75;;
48743;SDS011;34538;48.836;9.174;2023-12-20T03:41:31;1.10;;;0.30;;
48743;SDS011;34538;48.836;9.174;2023-12-20T03:43:58;0.80;;;0.20;;
48743;SDS011;34538;48.836;9.174;2023-12-20T03:46:25;0.20;;;0.20;;
48743;SDS011;34538;48.836;9.174;2023-12-20T03:48:54;0.40;;;0.20;;
48743;SDS011;34538;48.836;9.174;2023-12-20T03:51:20;0.17;;;0.17;;
48743;SDS011;34538;48.836;9.174;2023-12-20T03:53:47;0.75;;;0.30;;
48743;SDS011;34538;48.836;9.174;2023-12-20T03:56:14;0.55;;;0.20;;
48743;SDS011;34538;48.836;9.174;2023-12-20T03:58:41;0.20;;;0.20;;
48743;SDS011;34538;48.836;9.174;2023-12-20T04:01:09;0.32;;;0.30;;
48743;SDS011;34538;48.836;9.174;2023-12-20T04:03:37;0.50;;;0.30;;
48743;SDS011;34538;48.836;9.174;2023-12-20T04:06:07;0.35;;;0.28;;
48743;SDS011;34538;48.836;9.174;2023-12-20T04:08:33;0.20;;;0.20;;
48743;SDS011;34538;48.836;9.174;2023-12-20T04:11:00;0.30;;;0.30;;
48743;SDS011;34538;48.836;9.174;2023-12-20T04:13:27;0.75;;;0.30;;
48743;SDS011;34538;48.836;9.174;2023-12-20T04:15:54;0.90;;;0.43;;
48743;SDS011;34538;48.836;9.174;2023-12-20T04:18:21;0.60;;;0.32;;
48743;SDS011;34538;48.836;9.174;2023-12-20T04:20:48;0.20;;;0.20;;
48743;SDS011;34538;48.836;9.174;2023-12-20T04:23:18;0.35;;;0.30;;
48743;SDS011;34538;48.836;9.174;2023-12-20T04:25:45;0.60;;;0.22;;
48743;SDS011;34538;48.836;9.174;2023-12-20T04:28:12;1.38;;;0.63;;
48743;SDS011;34538;48.836;9.174;2023-12-20T04:30:40;0.30;;;0.20;;
48743;SDS011;34538;48.836;9.174;2023-12-20T04:33:07;1.95;;;0.20;;
48743;SDS011;34538;48.836;9.174;2023-12-20T04:35:34;0.40;;;0.38;;
48743;SDS011;34538;48.836;9.174;2023-12-20T04:38:01;0.47;;;0.30;;
48743;SDS011;34538;48.836;9.174;2023-12-20T04:40:30;0.30;;;0.30;;
48743;SDS011;34538;48.836;9.174;2023-12-20T04:42:57;0.55;;;0.30;;
48743;SDS011;34538;48.836;9.174;2023-12-20T04:45:24;0.90;;;0.57;;
48743;SDS011;34538;48.836;9.174;2023-12-20T04:47:51;0.38;;;0.30;;
48743;SDS011;34538;48.836;9.174;2023-12-20T04:50:18;0.75;;;0.30;;
48743;SDS011;34538;48.836;9.174;2023-12-20T04:52:46;0.45;;;0.32;;
48743;SDS011;34538;48.836;9.174;2023-12-20T04:55:13;0.30;;;0.30;;
48743;SDS011;34538;48.836;9.174;2023-12-20T04:57:41;0.63;;;0.40;;
48743;SDS011;34538;48.836;9.174;2023-12-20T05:00:09;0.52;;;0.38;;
48743;SDS011;34538;48.836;9.174;2023-12-20T05:02:37;1.38;;;0.60;;
48743;SDS011;34538;48.836;9.174;2023-12-20T05:05:04;0.32;;;0.20;;
48743;SDS011;34538;48.836;9.174;2023-12-20T05:07:31;2.20;;;0.45;;
48743;SDS011;34538;48.836;9.174;2023-12-20T05:09:58;1.17;;;0.40;;
48743;SDS011;34538;48.836;9.174;2023-12-20T05:12:25;1.17;;;0.32;;
48743;SDS011;34538;48.836;9.174;2023-12-20T05:14:53;0.40;;;0.40;;
48743;SDS011;34538;48.836;9.174;2023-12-20T05:17:20;1.05;;;0.47;;
48743;SDS011;34538;48.836;9.174;2023-12-20T05:19:47;1.08;;;0.50;;
48743;SDS011;34538;48.836;9.174;2023-12-20T05:22:15;1.15;;;0.65;;
48743;SDS011;34538;48.836;9.174;2023-12-20T05:24:42;1.40;;;0.43;;
48743;SDS011;34538;48.836;9.174;2023-12-20T05:27:09;0.90;;;0.55;;
48743;SDS011;34538;48.836;9.174;2023-12-20T05:29:36;0.55;;;0.50;;
48743;SDS011;34538;48.836;9.174;2023-12-20T05:32:05;1.45;;;0.60;;
48743;SDS011;34538;48.836;9.174;2023-12-20T05:34:32;0.98;;;0.50;;
48743;SDS011;34538;48.836;9.174;2023-12-20T05:36:59;1.17;;;0.45;;
48743;SDS011;34538;48.836;9.174;2023-12-20T05:39:26;1.38;;;0.70;;
48743;SDS011;34538;48.836;9.174;2023-12-20T05:41:54;0.65;;;0.52;;
48743;SDS011;34538;48.836;9.174;2023-12-20T05:44:20;1.30;;;0.65;;
48743;SDS011;34538;48.836;9.174;2023-12-20T05:46:47;2.20;;;1.00;;
48743;SDS011;34538;48.836;9.174;2023-12-20T05:49:15;2.28;;;0.70;;
48743;SDS011;34538;48.836;9.174;2023-12-20T05:51:42;1.25;;;0.88;;
48743;SDS011;34538;48.836;9.174;2023-12-20T05:54:09;1.20;;;0.80;;
48743;SDS011;34538;48.836;9.174;2023-12-20T05:56:36;1.88;;;0.90;;
48743;SDS011;34538;48.836;9.174;2023-12-20T05:59:03;2.25;;;1.10;;
48743;SDS011;34538;48.836;9.174;2023-12-20T06:01:30;1.65;;;1.00;;
48743;SDS011;34538;48.836;9.174;2023-12-20T06:03:57;1.48;;;1.00;;
48743;SDS011;34538;48.836;9.174;2023-12-20T06:06:25;2.60;;;1.00;;
48743;SDS011;34538;48.836;9.174;2023-12-20T06:08:52;0.90;;;0.70;;
48743;SDS011;34538;48.836;9.174;2023-12-20T06:11:19;1.65;;;0.82;;
48743;SDS011;34538;48.836;9.174;2023-12-20T06:13:46;4.10;;;0.93;;
48743;SDS011;34538;48.836;9.174;2023-12-20T06:16:14;1.48;;;0.70;;
48743;SDS011;34538;48.836;9.174;2023-12-20T06:18:41;1.25;;;0.82;;
48743;SDS011;34538;48.836;9.174;2023-12-20T06:21:08;1.58;;;0.82;;
48743;SDS011;34538;48.836;9.174;2023-12-20T06:23:39;1.17;;;0.80;;
48743;SDS011;34538;48.836;9.174;2023-12-20T06:26:06;3.38;;;0.95;;
48743;SDS011;34538;48.836;9.174;2023-12-20T06:28:33;1.20;;;0.98;;
48743;SDS011;34538;48.836;9.174;2023-12-20T06:31:00;1.33;;;0.90;;
48743;SDS011;34538;48.836;9.174;2023-12-20T06:33:28;2.28;;;0.70;;
48743;SDS011;34538;48.836;9.174;2023-12-20T06:35:56;1.33;;;0.90;;
48743;SDS011;34538;48.836;9.174;2023-12-20T06:38:23;2.42;;;1.52;;
48743;SDS011;34538;48.836;9.174;2023-12-20T06:40:51;2.13;;;1.10;;
48743;SDS011;34538;48.836;9.174;2023-12-20T06:43:18;1.33;;;1.10;;
48743;SDS011;34538;48.836;9.174;2023-12-20T06:45:45;4.53;;;1.35;;
48743;SDS011;34538;48.836;9.174;2023-12-20T06:48:12;1.80;;;1.10;;
48743;SDS011;34538;48.836;9.174;2023-12-20T06:50:39;2.58;;;1.30;;
48743;SDS011;34538;48.836;9.174;2023-12-20T06:53:06;2.10;;;1.35;;
48743;SDS011;34538;48.836;9.174;2023-12-20T06:55:34;2.55;;;1.50;;
48743;SDS011;34538;48.836;9.174;2023-12-20T06:58:04;2.08;;;1.42;;
48743;SDS011;34538;48.836;9.174;2023-12-20T07:00:32;2.58;;;1.77;;
48743;SDS011;34538;48.836;9.174;2023-12-20T07:02:59;2.53;;;1.73;;
48743;SDS011;34538;48.836;9.174;2023-12-20T07:05:26;3.78;;;2.33;;
48743;SDS011;34538;48.836;9.174;2023-12-20T07:07:53;3.35;;;2.30;;
48743;SDS011;34538;48.836;9.174;2023-12-20T07:10:20;4.32;;;2.78;;
48743;SDS011;34538;48.836;9.174;2023-12-20T07:12:47;4.28;;;2.88;;
48743;SDS011;34538;48.836;9.174;2023-12-20T07:15:17;4.20;;;2.90;;
48743;SDS011;34538;48.836;9.174;2023-12-20T07:17:44;5.03;;;3.17;;
48743;SDS011;34538;48.836;9.174;2023-12-20T07:20:11;6.22;;;3.88;;
48743;SDS011;34538;48.836;9.174;2023-12-20T07:22:38;5.90;;;3.22;;
48743;SDS011;34538;48.836;9.174;2023-12-20T07:25:06;5.00;;;3.17;;
48743;SDS011;34538;48.836;9.174;2023-12-20T07:27:33;5.63;;;3.33;;
48743;SDS011;34538;48.836;9.174;2023-12-20T07:30:00;4.45;;;2.72;;
48743;SDS011;34538;48.836;9.174;2023-12-20T07:32:28;4.43;;;2.78;;
48743;SDS011;34538;48.836;9.174;2023-12-20T07:34:55;6.25;;;2.88;;
48743;SDS011;34538;48.836;9.174;2023-12-20T07:37:22;5.65;;;2.92;;
48743;SDS011;34538;48.836;9.174;2023-12-20T07:39:49;4.75;;;3.00;;
48743;SDS011;34538;48.836;9.174;2023-12-20T07:42:16;4.00;;;2.83;;
48743;SDS011;34538;48.836;9.174;2023-12-20T07:44:43;4.18;;;2.65;;
48743;SDS011;34538;48.836;9.174;2023-12-20T07:47:10;3.90;;;2.70;;
48743;SDS011;34538;48.836;9.174;2023-12-20T07:49:42;5.80;;;2.67;;
48743;SDS011;34538;48.836;9.174;2023-12-20T07:52:08;4.57;;;2.88;;
48743;SDS011;34538;48.836;9.174;2023-12-20T07:54:35;4.90;;;2.65;;
48743;SDS011;34538;48.836;9.174;2023-12-20T07:57:02;4.70;;;2.97;;
48743;SDS011;34538;48.836;9.174;2023-12-20T07:59:29;3.70;;;2.90;;
48743;SDS011;34538;48.836;9.174;2023-12-20T08:01:56;4.57;;;2.47;;
48743;SDS011;34538;48.836;9.174;2023-12-20T08:04:23;3.30;;;2.38;;
48743;SDS011;34538;48.836;9.174;2023-12-20T08:06:51;4.50;;;2.70;;
48743;SDS011;34538;48.836;9.174;2023-12-20T08:09:18;3.90;;;2.85;;
48743;SDS011;34538;48.836;9.174;2023-12-20T08:11:45;4.25;;;2.80;;
48743;SDS011;34538;48.836;9.174;2023-12-20T08:14:12;3.72;;;2.53;;
48743;SDS011;34538;48.836;9.174;2023-12-20T08:16:39;11.40;;;3.33;;
48743;SDS011;34538;48.836;9.174;2023-12-20T08:19:06;4.40;;;2.75;;
48743;SDS011;34538;48.836;9.174;2023-12-20T08:21:33;5.32;;;2.95;;
48743;SDS011;34538;48.836;9.174;2023-12-20T08:24:02;3.83;;;2.53;;
48743;SDS011;34538;48.836;9.174;2023-12-20T08:26:29;4.97;;;2.72;;
48743;SDS011;34538;48.836;9.174;2023-12-20T08:28:56;4.93;;;3.03;;
48743;SDS011;34538;48.836;9.174;2023-12-20T08:31:23;4.85;;;3.00;;
48743;SDS011;34538;48.836;9.174;2023-12-20T08:33:51;4.65;;;2.80;;
48743;SDS011;34538;48.836;9.174;2023-12-20T08:36:19;5.43;;;3.20;;
48743;SDS011;34538;48.836;9.174;2023-12-20T08:38:46;4.75;;;2.70;;
48743;SDS011;34538;48.836;9.174;2023-12-20T08:41:15;3.70;;;2.70;;
48743;SDS011;34538;48.836;9.174;2023-12-20T08:43:42;5.30;;;2.80;;
48743;SDS011;34538;48.836;9.174;2023-12-20T08:46:09;5.50;;;2.90;;
48743;SDS011;34538;48.836;9.174;2023-12-20T08:48:36;3.90;;;2.70;;
48743;SDS011;34538;48.836;9.174;2023-12-20T08:51:03;4.95;;;2.90;;
48743;SDS011;34538;48.836;9.174;2023-12-20T08:53:32;5.35;;;2.58;;
48743;SDS011;34538;48.836;9.174;2023-12-20T08:55:59;6.38;;;2.97;;
48743;SDS011;34538;48.836;9.174;2023-12-20T08:58:28;5.25;;;2.85;;
48743;SDS011;34538;48.836;9.174;2023-12-20T09:00:55;4.63;;;2.88;;
48743;SDS011;34538;48.836;9.174;2023-12-20T09:03:22;5.57;;;2.90;;
48743;SDS011;34538;48.836;9.174;2023-12-20T09:05:49;4.55;;;2.97;;
48743;SDS011;34538;48.836;9.174;2023-12-20T09:08:16;5.32;;;2.97;;
48743;SDS011;34538;48.836;9.174;2023-12-20T09:10:43;9.85;;;4.05;;
48743;SDS011;34538;48.836;9.174;2023-12-20T09:13:11;4.40;;;2.65;;
48743;SDS011;34538;48.836;9.174;2023-12-20T09:15:39;4.45;;;2.60;;
48743;SDS011;34538;48.836;9.174;2023-12-20T09:18:06;6.55;;;3.05;;
48743;SDS011;34538;48.836;9.174;2023-12-20T09:20:34;4.70;;;2.78;;
48743;SDS011;34538;48.836;9.174;2023-12-20T09:23:02;3.90;;;2.75;;
48743;SDS011;34538;48.836;9.174;2023-12-20T09:25:29;3.65;;;2.83;;
48743;SDS011;34538;48.836;9.174;2023-12-20T09:27:57;4.93;;;2.35;;
48743;SDS011;34538;48.836;9.174;2023-12-20T09:30:24;4.65;;;2.13;;
48743;SDS011;34538;48.836;9.174;2023-12-20T09:32:52;5.65;;;2.10;;
48743;SDS011;34538;48.836;9.174;2023-12-20T09:35:19;5.03;;;2.10;;
48743;SDS011;34538;48.836;9.174;2023-12-20T09:37:46;2.83;;;1.50;;
48743;SDS011;34538;48.836;9.174;2023-12-20T09:40:13;2.45;;;1.55;;
48743;SDS011;34538;48.836;9.174;2023-12-20T09:42:43;4.82;;;1.70;;
48743;SDS011;34538;48.836;9.174;2023-12-20T09:45:17;3.90;;;1.33;;
48743;SDS011;34538;48.836;9.174;2023-12-20T09:47:47;3.47;;;1.60;;
48743;SDS011;34538;48.836;9.174;2023-12-20T09:50:16;6.05;;;1.52;;
48743;SDS011;34538;48.836;9.174;2023-12-20T09:52:46;3.00;;;1.07;;
48743;SDS011;34538;48.836;9.174;2023-12-20T09:55:16;4.03;;;1.10;;
48743;SDS011;34538;48.836;9.174;2023-12-20T09:57:44;2.42;;;1.20;;
48743;SDS011;34538;48.836;9.174;2023-12-20T10:00:12;3.85;;;1.30;;
48743;SDS011;34538;48.836;9.174;2023-12-20T10:02:42;5.00;;;1.30;;
48743;SDS011;34538;48.836;9.174;2023-12-20T10:05:15;5.88;;;1.08;;
48743;SDS011;34538;48.836;9.174;2023-12-20T10:07:45;3.22;;;1.08;;
48743;SDS011;34538;48.836;9.174;2023-12-20T10:10:13;7.70;;;2.00;;
48743;SDS011;34538;48.836;9.174;2023-12-20T10:12:40;3.40;;;1.17;;
48743;SDS011;34538;48.836;9.174;2023-12-20T10:15:07;2.10;;;1.20;;
48743;SDS011;34538;48.836;9.174;2023-12-20T10:17:35;1.38;;;0.98;;
48743;SDS011;34538;48.836;9.174;2023-12-20T10:20:03;3.67;;;1.10;;
48743;SDS011;34538;48.836;9.174;2023-12-20T10:22:36;4.00;;;1.15;;
48743;SDS011;34538;48.836;9.174;2023-12-20T10:25:03;10.05;;;1.92;;
48743;SDS011;34538;48.836;9.174;2023-12-20T10:27:31;2.33;;;1.10;;
48743;SDS011;34538;48.836;9.174;2023-12-20T10:29:59;4.50;;;2.00;;
48743;SDS011;34538;48.836;9.174;2023-12-20T10:32:26;2.75;;;1.25;;
48743;SDS011;34538;48.836;9.174;2023-12-20T10:34:53;5.38;;;1.17;;
48743;SDS011;34538;48.836;9.174;2023-12-20T10:37:21;3.95;;;1.00;;
48743;SDS011;34538;48.836;9.174;2023-12-20T10:39:51;6.97;;;1.58;;
48743;SDS011;34538;48.836;9.174;2023-12-20T10:42:21;5.00;;;1.45;;
48743;SDS011;34538;48.836;9.174;2023-12-20T10:44:49;3.97;;;1.10;;
48743;SDS011;34538;48.836;9.174;2023-12-20T10:47:16;6.15;;;1.55;;
48743;SDS011;34538;48.836;9.174;2023-12-20T10:49:43;1.98;;;1.20;;
48743;SDS011;34538;48.836;9.174;2023-12-20T10:52:12;3.83;;;1.33;;
48743;SDS011;34538;48.836;9.174;2023-12-20T10:54:39;1.75;;;1.00;;
48743;SDS011;34538;48.836;9.174;2023-12-20T10:57:08;3.65;;;0.95;;
48743;SDS011;34538;48.836;9.174;2023-12-20T10:59:36;1.70;;;1.17;;
48743;SDS011;34538;48.836;9.174;2023-12-20T11:02:04;2.72;;;0.90;;
48743;SDS011;34538;48.836;9.174;2023-12-20T11:04:35;8.15;;;1.30;;
48743;SDS011;34538;48.836;9.174;2023-12-20T11:07:08;4.60;;;0.90;;
48743;SDS011;34538;48.836;9.174;2023-12-20T11:09:47;2.80;;;1.10;;
48743;SDS011;34538;48.836;9.174;2023-12-20T11:12:22;4.63;;;1.13;;
48743;SDS011;34538;48.836;9.174;2023-12-20T11:14:59;1.85;;;1.10;;
48743;SDS011;34538;48.836;9.174;2023-12-20T11:17:29;2.40;;;0.82;;
48743;SDS011;34538;48.836;9.174;2023-12-20T11:20:05;9.10;;;1.70;;
48743;SDS011;34538;48.836;9.174;2023-12-20T11:22:35;3.13;;;1.10;;
48743;SDS011;34538;48.836;9.174;2023-12-20T11:25:04;2.75;;;1.10;;
48743;SDS011;34538;48.836;9.174;2023-12-20T11:27:35;3.40;;;1.35;;
48743;SDS011;34538;48.836;9.174;2023-12-20T11:30:02;4.50;;;1.05;;
48743;SDS011;34538;48.836;9.174;2023-12-20T11:32:33;3.55;;;1.92;;
48743;SDS011;34538;48.836;9.174;2023-12-20T11:35:01;4.45;;;0.90;;
48743;SDS011;34538;48.836;9.174;2023-12-20T11:37:44;4.65;;;1.92;;
48743;SDS011;34538;48.836;9.174;2023-12-20T11:40:13;1.65;;;0.98;;
48743;SDS011;34538;48.836;9.174;2023-12-20T11:42:43;3.20;;;1.10;;
48743;SDS011;34538;48.836;9.174;2023-12-20T11:45:13;6.53;;;2.17;;
48743;SDS011;34538;48.836;9.174;2023-12-20T11:47:42;3.20;;;1.80;;
48743;SDS011;34538;48.836;9.174;2023-12-20T11:50:10;6.15;;;1.63;;
48743;SDS011;34538;48.836;9.174;2023-12-20T11:52:37;3.35;;;0.93;;
48743;SDS011;34538;48.836;9.174;2023-12-20T11:55:04;4.25;;;1.10;;
48743;SDS011;34538;48.836;9.174;2023-12-20T11:57:32;2.92;;;1.40;;
48743;SDS011;34538;48.836;9.174;2023-12-20T12:00:02;4.28;;;1.10;;
48743;SDS011;34538;48.836;9.174;2023-12-20T12:02:37;3.25;;;1.27;;
48743;SDS011;34538;48.836;9.174;2023-12-20T12:05:04;3.80;;;1.27;;
48743;SDS011;34538;48.836;9.174;2023-12-20T12:07:33;6.00;;;1.42;;
48743;SDS011;34538;48.836;9.174;2023-12-20T12:10:00;3.88;;;1.60;;
48743;SDS011;34538;48.836;9.174;2023-12-20T12:12:29;4.03;;;1.13;;
48743;SDS011;34538;48.836;9.174;2023-12-20T12:14:57;4.93;;;1.10;;
48743;SDS011;34538;48.836;9.174;2023-12-20T12:17:26;2.60;;;1.10;;
48743;SDS011;34538;48.836;9.174;2023-12-20T12:20:01;5.20;;;1.23;;
48743;SDS011;34538;48.836;9.174;2023-12-20T12:22:29;2.85;;;1.20;;
48743;SDS011;34538;48.836;9.174;2023-12-20T12:24:58;3.33;;;1.23;;
48743;SDS011;34538;48.836;9.174;2023-12-20T12:27:35;5.22;;;1.50;;
48743;SDS011;34538;48.836;9.174;2023-12-20T12:30:04;3.55;;;1.50;;
48743;SDS011;34538;48.836;9.174;2023-12-20T12:32:34;9.30;;;2.03;;
48743;SDS011;34538;48.836;9.174;2023-12-20T12:35:02;2.90;;;1.10;;
48743;SDS011;34538;48.836;9.174;2023-12-20T12:37:31;4.05;;;1.48;;
48743;SDS011;34538;48.836;9.174;2023-12-20T12:40:00;2.30;;;1.25;;
48743;SDS011;34538;48.836;9.174;2023-12-20T12:42:27;4.82;;;1.48;;
48743;SDS011;34538;48.836;9.174;2023-12-20T12:44:54;5.07;;;1.25;;
48743;SDS011;34538;48.836;9.174;2023-12-20T12:47:21;3.00;;;1.27;;
48743;SDS011;34538;48.836;9.174;2023-12-20T12:49:51;4.32;;;1.52;;
48743;SDS011;34538;48.836;9.174;2023-12-20T12:52:19;2.42;;;1.00;;
48743;SDS011;34538;48.836;9.174;2023-12-20T12:54:45;4.05;;;1.65;;
48743;SDS011;34538;48.836;9.174;2023-12-20T12:57:13;4.00;;;1.05;;
48743;SDS011;34538;48.836;9.174;2023-12-20T12:59:40;4.68;;;1.67;;
48743;SDS011;34538;48.836;9.174;2023-12-20T13:02:08;5.57;;;1.45;;
48743;SDS011;34538;48.836;9.174;2023-12-20T13:04:35;3.72;;;1.17;;
48743;SDS011;34538;48.836;9.174;2023-12-20T13:07:03;4.28;;;1.10;;
48743;SDS011;34538;48.836;9.174;2023-12-20T13:09:30;2.45;;;1.10;;
48743;SDS011;34538;48.836;9.174;2023-12-20T13:11:57;5.78;;;1.65;;
48743;SDS011;34538;48.836;9.174;2023-12-20T13:14:25;3.28;;;1.00;;
48743;SDS011;34538;48.836;9.174;2023-12-20T13:16:52;4.30;;;1.20;;
48743;SDS011;34538;48.836;9.174;2023-12-20T13:19:19;4.35;;;1.50;;
48743;SDS011;34538;48.836;9.174;2023-12-20T13:21:46;5.55;;;1.10;;
48743;SDS011;34538;48.836;9.174;2023-12-20T13:24:15;7.40;;;1.40;;
48743;SDS011;34538;48.836;9.174;2023-12-20T13:26:42;7.20;;;1.15;;
48743;SDS011;34538;48.836;9.174;2023-12-20T13:29:09;1.98;;;0.77;;
48743;SDS011;34538;48.836;9.174;2023-12-20T13:31:37;3.85;;;0.90;;
48743;SDS011;34538;48.836;9.174;2023-12-20T13:34:05;3.35;;;0.80;;
48743;SDS011;34538;48.836;9.174;2023-12-20T13:36:32;3.15;;;1.05;;
48743;SDS011;34538;48.836;9.174;2023-12-20T13:38:59;4.15;;;1.15;;
48743;SDS011;34538;48.836;9.174;2023-12-20T13:41:29;3.63;;;0.85;;
48743;SDS011;34538;48.836;9.174;2023-12-20T13:43:56;3.75;;;1.20;;
48743;SDS011;34538;48.836;9.174;2023-12-20T13:46:23;2.22;;;1.15;;
48743;SDS011;34538;48.836;9.174;2023-12-20T13:48:50;2.80;;;0.68;;
48743;SDS011;34538;48.836;9.174;2023-12-20T13:51:16;3.65;;;1.00;;
48743;SDS011;34538;48.836;9.174;2023-12-20T13:53:43;4.03;;;1.20;;
48743;SDS011;34538;48.836;9.174;2023-12-20T13:56:10;2.40;;;1.00;;
48743;SDS011;34538;48.836;9.174;2023-12-20T13:58:39;4.97;;;1.45;;
48743;SDS011;34538;48.836;9.174;2023-12-20T14:01:06;6.00;;;1.25;;
48743;SDS011;34538;48.836;9.174;2023-12-20T14:03:33;3.30;;;1.38;;
48743;SDS011;34538;48.836;9.174;2023-12-20T14:06:00;3.67;;;1.20;;
48743;SDS011;34538;48.836;9.174;2023-12-20T14:08:27;5.25;;;1.25;;
48743;SDS011;34538;48.836;9.174;2023-12-20T14:10:54;4.68;;;1.30;;
48743;SDS011;34538;48.836;9.174;2023-12-20T14:13:21;8.52;;;1.83;;
48743;SDS011;34538;48.836;9.174;2023-12-20T14:15:49;5.85;;;1.08;;
48743;SDS011;34538;48.836;9.174;2023-12-20T14:18:16;4.75;;;0.82;;
48743;SDS011;34538;48.836;9.174;2023-12-20T14:20:43;3.00;;;1.40;;
48743;SDS011;34538;48.836;9.174;2023-12-20T14:23:12;4.97;;;1.02;;
48743;SDS011;34538;48.836;9.174;2023-12-20T14:25:40;4.50;;;1.35;;
48743;SDS011;34538;48.836;9.174;2023-12-20T14:28:07;6.45;;;1.35;;
48743;SDS011;34538;48.836;9.174;2023-12-20T14:30:35;2.40;;;1.13;;
48743;SDS011;34538;48.836;9.174;2023-12-20T14:33:04;2.30;;;1.23;;
48743;SDS011;34538;48.836;9.174;2023-12-20T14:35:31;5.20;;;1.20;;
48743;SDS011;34538;48.836;9.174;2023-12-20T14:37:58;5.03;;;1.48;;
48743;SDS011;34538;48.836;9.174;2023-12-20T14:40:26;4.20;;;1.00;;
48743;SDS011;34538;48.836;9.174;2023-12-20T14:42:53;3.22;;;1.02;;
48743;SDS011;34538;48.836;9.174;2023-12-20T14:45:20;4.35;;;1.48;;
48743;SDS011;34538;48.836;9.174;2023-12-20T14:47:47;3.78;;;1.23;;
48743;SDS011;34538;48.836;9.174;2023-12-20T14:50:16;4.00;;;1.10;;